Holbrook, AZ (86028)

3:11 AM MST on August 21, 2014 (GMT -0700)
Sundance Springs | Change Station
CLOSE
Current Station
Personal Weather Station
Location: Snowflake, AZ
Elevation: 5590 ft
Nearby Weather Stations

Elev 5590 ft 34.52 °N, 110.06 °W | Updated 9 seconds ago

Overcast
Overcast
62.3 °F
Feels Like 62.3 °F
N
0.0
Wind Variable Wind from South
Gusts 0.0 mph

Today
High -- | Low -- °F
--% Chance of Precip.
Yesterday
High -- | Low -- °F
Precip. -- in
5:44 AM 7:00 PM
Waning Crescent, 15% visible
Pressure 29.91 in
Visibility 10.0 miles
Clouds Overcast 11000 ft
Dew Point 54 °F
Humidity 73%
Rainfall 0.00 in
Snow Depth Not available.
UV 0 out of 12
Pollen 5.10 out of 12
Air Quality Not available.
Flu Activity Not available.
METAR KSJN 210954Z AUTO 21003KT 10SM OVC110 16/09 A3017 RMK AO2 SLP128 T01610089

More Conditions Fewer Conditions

Pressure 29.91 in
Visibility 10.0 miles
Clouds Overcast 11000 ft
Dew Point 54 °F
Humidity 73%
Rainfall 0.00 in
Snow Depth Not available.
UV 0 out of 12
Pollen 5.10 out of 12
Air Quality Not available.
Flu Activity Not available.
METAR KSJN 210954Z AUTO 21003KT 10SM OVC110 16/09 A3017 RMK AO2 SLP128 T01610089

More Conditions Fewer Conditions

10-Day Weather Forecast

Almanac

Astronomy

Aug. 21, 2014 Rise Set
Actual Time 5:44 AM MST 7:00 PM MST
Civil Twilight 5:18 AM MST 7:26 PM MST
Nautical Twilight 4:46 AM MST 7:57 PM MST
Astronomical Twilight 4:13 AM MST 8:30 PM MST
Moon 2:21 AM MST 4:28 PM MST
Length of Visible Light 14h 08m
Length of Day
13h 15m
Tomorrow will be 2m 0s shorter.
Waning Crescent, 15% of the Moon is Illuminated
Today
Waning Crescent
Aug 25
New
Sep 2
First Quarter
Sep 8
Full
Sep 15
Last Quarter

Today's Extremes

State Highs State Lows

Community

WunderPhotos

Upload Photos

1,745,871 photos uploaded!

Nearby

Snow Depth

Station Depth Elevation
Heber 0 in 7640 ft
Maverick Fork 0 in 9200 ft
Promontory 0 in 7930 ft
Wildcat 0 in 7850 ft
Beaver Head 13 in 7990 ft

Earthquake Activity

City Distance Mag. Time & Date
No recent earthquake activity has been reported nearby.
Minimum magnitude displayed is 2.5.

Coastal Water Temperatures

Place Temperature
No Stations Reporting

Nearby Weather Stations